createdAt,value
2019-01-16T00:00:17.866Z,284.19
2019-01-16T00:01:17.872Z,284.14
2019-01-16T00:02:17.860Z,284.27
2019-01-16T00:03:17.851Z,284.47
2019-01-16T00:04:17.826Z,283.76
2019-01-16T00:05:17.806Z,284.90
2019-01-16T00:06:17.811Z,284.40
2019-01-16T00:07:17.786Z,284.17
2019-01-16T00:08:17.774Z,283.97
2019-01-16T00:09:17.807Z,284.00
2019-01-16T00:10:17.769Z,284.67
2019-01-16T00:11:17.794Z,283.76
2019-01-16T00:12:17.759Z,284.44
2019-01-16T00:13:17.743Z,284.51
2019-01-16T00:14:17.744Z,283.91
2019-01-16T00:15:17.729Z,284.24
2019-01-16T00:16:17.692Z,283.79
2019-01-16T00:17:17.702Z,284.04
2019-01-16T00:18:17.693Z,284.61
2019-01-16T00:19:17.682Z,284.15
2019-01-16T00:20:17.690Z,283.36
2019-01-16T00:21:17.659Z,284.07
2019-01-16T00:22:17.634Z,283.80
2019-01-16T00:23:17.654Z,283.51
2019-01-16T00:24:17.618Z,284.47
2019-01-16T00:25:17.612Z,284.45
2019-01-16T00:26:17.598Z,284.05
2019-01-16T00:27:17.598Z,284.48
2019-01-16T00:28:17.582Z,284.10
2019-01-16T00:29:17.581Z,284.23
2019-01-16T00:30:17.544Z,283.39
2019-01-16T00:31:17.544Z,284.06
2019-01-16T00:32:17.535Z,284.39
2019-01-16T00:33:17.520Z,284.42
2019-01-16T00:34:17.516Z,284.25
2019-01-16T00:35:17.522Z,283.95
2019-01-16T00:36:17.492Z,284.07
2019-01-16T00:37:17.479Z,284.03
2019-01-16T00:38:17.495Z,284.39
2019-01-16T00:39:17.458Z,284.08
2019-01-16T00:40:17.438Z,283.92
2019-01-16T00:41:17.443Z,284.12
2019-01-16T00:42:17.424Z,284.26
2019-01-16T00:43:17.420Z,284.67
2019-01-16T00:44:17.425Z,283.61
2019-01-16T00:45:17.394Z,284.56
2019-01-16T00:46:17.379Z,283.96
2019-01-16T00:47:17.382Z,284.01
2019-01-16T00:48:24.410Z,284.20
2019-01-16T00:49:18.351Z,284.83
2019-01-16T00:50:17.361Z,284.61
2019-01-16T00:51:17.325Z,283.91
2019-01-16T00:52:17.324Z,284.09
2019-01-16T00:53:17.327Z,284.04
2019-01-16T00:54:17.304Z,284.02
2019-01-16T00:55:17.276Z,284.07
2019-01-16T00:56:17.305Z,284.12
2019-01-16T00:57:17.279Z,284.10
2019-01-16T00:58:17.273Z,284.62
2019-01-16T00:59:17.281Z,284.19
2019-01-16T01:00:17.989Z,284.34
2019-01-16T01:01:17.251Z,283.74
2019-01-16T01:02:17.249Z,284.32
2019-01-16T01:03:17.206Z,284.22
2019-01-16T01:04:17.234Z,283.92
2019-01-16T01:05:17.207Z,284.03
2019-01-16T01:06:17.169Z,284.30
2019-01-16T01:07:17.174Z,283.88
2019-01-16T01:08:17.168Z,284.31
2019-01-16T01:09:17.178Z,284.21
2019-01-16T01:10:17.149Z,284.02
2019-01-16T01:11:17.146Z,283.79
2019-01-16T01:12:17.131Z,284.13
2019-01-16T01:13:17.132Z,284.37
2019-01-16T01:14:17.099Z,283.95
2019-01-16T01:15:17.092Z,284.36
2019-01-16T01:16:17.082Z,283.60
2019-01-16T01:17:17.073Z,283.62
2019-01-16T01:18:17.075Z,284.51
2019-01-16T01:19:17.081Z,284.44
2019-01-16T01:20:17.075Z,284.16
2019-01-16T01:21:17.028Z,284.53
2019-01-16T01:22:17.024Z,283.90
2019-01-16T01:23:17.000Z,284.08
2019-01-16T01:24:16.999Z,284.13
2019-01-16T01:25:17.000Z,284.07
2019-01-16T01:26:16.961Z,284.50
2019-01-16T01:27:16.965Z,284.62
2019-01-16T01:28:16.945Z,284.52
2019-01-16T01:29:16.943Z,284.51
2019-01-16T01:30:16.947Z,284.13
2019-01-16T01:31:16.941Z,284.23
2019-01-16T01:32:16.906Z,284.52
2019-01-16T01:33:16.924Z,284.36
2019-01-16T01:34:16.897Z,284.20
2019-01-16T01:35:16.898Z,284.24
2019-01-16T01:36:16.860Z,284.10
2019-01-16T01:37:16.896Z,283.77
2019-01-16T01:38:16.875Z,284.64
2019-01-16T01:39:16.848Z,284.84
2019-01-16T01:40:16.819Z,283.99
2019-01-16T01:41:16.808Z,283.84
2019-01-16T01:42:16.787Z,284.18
2019-01-16T01:43:16.792Z,284.05
2019-01-16T01:44:16.778Z,284.37
2019-01-16T01:45:16.769Z,284.10
2019-01-16T01:46:16.748Z,283.87
2019-01-16T01:47:16.746Z,284.00
2019-01-16T01:48:16.734Z,284.17
2019-01-16T01:49:16.709Z,284.02
2019-01-16T01:50:16.707Z,284.51
2019-01-16T01:51:16.701Z,284.49
2019-01-16T01:52:16.681Z,283.73
2019-01-16T01:53:16.683Z,284.24
2019-01-16T01:54:16.668Z,284.07
2019-01-16T01:55:16.669Z,284.20
2019-01-16T01:56:16.647Z,284.23
2019-01-16T01:57:16.642Z,284.17
2019-01-16T01:58:16.625Z,284.24
2019-01-16T01:59:16.635Z,284.02
2019-01-16T02:00:16.614Z,283.90
2019-01-16T02:01:16.586Z,284.37
2019-01-16T02:02:16.573Z,284.02
2019-01-16T02:03:16.601Z,284.40
2019-01-16T02:04:16.570Z,283.84
2019-01-16T02:05:16.583Z,284.13
2019-01-16T02:06:16.536Z,283.64
2019-01-16T02:07:16.530Z,283.70
2019-01-16T02:08:16.533Z,284.07
2019-01-16T02:09:16.529Z,284.60
2019-01-16T02:10:16.507Z,283.78
2019-01-16T02:11:16.482Z,284.39
2019-01-16T02:12:16.470Z,284.25
2019-01-16T02:13:16.472Z,284.19
2019-01-16T02:14:16.467Z,284.08
2019-01-16T02:15:16.464Z,283.49
2019-01-16T02:16:16.427Z,284.11
2019-01-16T02:17:16.439Z,284.54
2019-01-16T02:18:16.448Z,284.02
2019-01-16T02:19:16.425Z,283.65
2019-01-16T02:20:16.403Z,284.29
2019-01-16T02:21:16.408Z,284.21
2019-01-16T02:22:16.386Z,284.68
2019-01-16T02:23:16.371Z,284.22
2019-01-16T02:24:16.360Z,284.18
2019-01-16T02:25:17.025Z,284.38
2019-01-16T02:26:16.352Z,284.08
2019-01-16T02:27:16.321Z,284.21
2019-01-16T02:28:16.322Z,284.32
2019-01-16T02:29:16.302Z,284.65
2019-01-16T02:30:16.286Z,284.38
2019-01-16T02:31:16.284Z,284.40
2019-01-16T02:32:16.268Z,284.08
2019-01-16T02:33:16.270Z,283.82
2019-01-16T02:34:16.252Z,284.23
2019-01-16T02:35:16.225Z,284.07
2019-01-16T02:36:16.217Z,283.50
2019-01-16T02:37:16.224Z,283.97
2019-01-16T02:38:16.223Z,283.77
2019-01-16T02:39:16.222Z,284.12
2019-01-16T02:40:17.028Z,284.33
2019-01-16T02:41:16.169Z,284.54
2019-01-16T02:42:16.164Z,284.06
2019-01-16T02:43:16.177Z,284.16
2019-01-16T02:44:16.145Z,284.52
2019-01-16T02:45:16.133Z,284.14
2019-01-16T02:46:16.143Z,284.74
2019-01-16T02:47:16.127Z,284.41
2019-01-16T02:48:16.104Z,283.96
2019-01-16T02:49:16.108Z,284.05
2019-01-16T02:50:16.106Z,284.19
2019-01-16T02:51:16.115Z,284.33
2019-01-16T02:52:16.062Z,283.92
2019-01-16T02:53:16.084Z,284.33
2019-01-16T02:54:16.048Z,284.52
2019-01-16T02:55:16.037Z,284.08
2019-01-16T02:56:16.026Z,283.85
2019-01-16T02:57:16.061Z,283.88
2019-01-16T02:58:16.014Z,284.12
2019-01-16T02:59:15.989Z,284.29
2019-01-16T03:00:15.985Z,284.09
2019-01-16T03:01:15.988Z,283.82
2019-01-16T03:02:15.965Z,284.45
2019-01-16T03:03:16.008Z,284.25
2019-01-16T03:04:15.955Z,284.33
2019-01-16T03:05:15.947Z,284.19
2019-01-16T03:06:15.923Z,283.06
2019-01-16T03:07:15.942Z,283.86
2019-01-16T03:08:15.904Z,283.35
2019-01-16T03:09:15.890Z,283.89
2019-01-16T03:10:15.879Z,283.45
2019-01-16T03:11:15.862Z,284.06
2019-01-16T03:12:15.865Z,284.05
2019-01-16T03:13:15.839Z,284.60
2019-01-16T03:14:15.860Z,284.05
2019-01-16T03:15:15.837Z,283.91
2019-01-16T03:16:15.803Z,284.19
2019-01-16T03:17:15.805Z,283.76
2019-01-16T03:18:15.793Z,283.85
2019-01-16T03:19:15.804Z,284.26
2019-01-16T03:20:15.778Z,283.38
2019-01-16T03:21:15.741Z,284.24
2019-01-16T03:22:15.742Z,283.85
2019-01-16T03:23:15.727Z,284.14
2019-01-16T03:24:17.610Z,284.04
2019-01-16T03:25:15.710Z,284.12
2019-01-16T03:26:15.705Z,284.41
2019-01-16T03:27:15.692Z,284.20
2019-01-16T03:28:15.674Z,283.84
2019-01-16T03:29:15.705Z,283.61
2019-01-16T03:30:15.683Z,284.07
2019-01-16T03:31:15.660Z,284.68
2019-01-16T03:32:15.641Z,283.95
2019-01-16T03:33:15.629Z,283.34
2019-01-16T03:34:15.609Z,284.12
2019-01-16T03:35:15.610Z,283.60
2019-01-16T03:36:15.635Z,284.27
2019-01-16T03:37:15.589Z,283.49
2019-01-16T03:38:15.574Z,284.06
2019-01-16T03:39:15.568Z,284.20
2019-01-16T03:40:15.572Z,283.72
2019-01-16T03:41:15.546Z,284.06
2019-01-16T03:42:15.518Z,283.57
2019-01-16T03:43:15.531Z,284.07
2019-01-16T03:44:15.521Z,283.77
2019-01-16T03:45:15.497Z,284.42
2019-01-16T03:46:15.487Z,283.90
2019-01-16T03:47:15.477Z,284.47
2019-01-16T03:48:15.465Z,284.01
2019-01-16T03:49:15.479Z,283.88
2019-01-16T03:50:15.460Z,284.02
2019-01-16T03:51:15.442Z,283.65
2019-01-16T03:52:15.446Z,283.97
2019-01-16T03:53:15.436Z,283.72
2019-01-16T03:54:15.423Z,283.83
2019-01-16T03:55:15.398Z,284.22
2019-01-16T03:56:15.382Z,284.57
2019-01-16T03:57:15.385Z,283.47
2019-01-16T03:58:15.405Z,283.63
2019-01-16T03:59:15.358Z,284.34
2019-01-16T04:00:15.338Z,283.97
2019-01-16T04:01:15.339Z,283.80
2019-01-16T04:02:15.311Z,284.12
2019-01-16T04:03:15.308Z,284.33
2019-01-16T04:04:15.327Z,284.01
2019-01-16T04:05:15.278Z,283.70
2019-01-16T04:06:15.278Z,284.03
2019-01-16T04:07:15.278Z,284.52
2019-01-16T04:08:15.254Z,284.23
2019-01-16T04:09:15.258Z,284.22
2019-01-16T04:10:15.244Z,284.29
2019-01-16T04:11:15.228Z,284.14
2019-01-16T04:12:15.204Z,283.72
2019-01-16T04:13:15.278Z,284.14
2019-01-16T04:14:15.190Z,284.16
2019-01-16T04:15:15.186Z,284.09
2019-01-16T04:16:15.181Z,283.59
2019-01-16T04:17:15.157Z,284.26
2019-01-16T04:18:15.145Z,283.81
2019-01-16T04:19:21.560Z,283.88
2019-01-16T04:20:16.161Z,284.26
2019-01-16T04:21:15.127Z,284.03
2019-01-16T04:22:15.101Z,284.12
2019-01-16T04:23:15.084Z,284.23
2019-01-16T04:24:15.096Z,284.07
2019-01-16T04:25:15.068Z,283.93
2019-01-16T04:26:15.074Z,284.10
2019-01-16T04:27:15.059Z,283.57
2019-01-16T04:28:15.035Z,284.18
2019-01-16T04:29:15.026Z,284.28
2019-01-16T04:30:15.022Z,283.89
2019-01-16T04:31:15.007Z,283.89
2019-01-16T04:32:15.015Z,284.10
2019-01-16T04:33:15.037Z,283.85
2019-01-16T04:34:14.974Z,283.60
2019-01-16T04:35:14.971Z,284.01
2019-01-16T04:36:14.965Z,284.00
2019-01-16T04:37:15.637Z,284.35
2019-01-16T04:38:14.939Z,283.83
2019-01-16T04:39:14.929Z,284.07
2019-01-16T04:40:14.965Z,283.94
2019-01-16T04:41:14.897Z,284.23
2019-01-16T04:42:14.902Z,283.67
2019-01-16T04:43:14.889Z,284.15
2019-01-16T04:44:14.882Z,284.16
2019-01-16T04:45:14.853Z,284.29
2019-01-16T04:46:14.859Z,284.13
2019-01-16T04:47:14.835Z,283.67
2019-01-16T04:48:14.838Z,284.22
2019-01-16T04:49:14.823Z,283.68
2019-01-16T04:50:14.808Z,284.28
2019-01-16T04:51:14.811Z,283.84
2019-01-16T04:52:14.830Z,284.48
2019-01-16T04:53:14.781Z,283.89
2019-01-16T04:54:14.773Z,283.96
2019-01-16T04:55:14.756Z,284.01
2019-01-16T04:56:14.748Z,283.30
2019-01-16T04:57:14.730Z,283.79
2019-01-16T04:58:14.766Z,284.27
2019-01-16T04:59:14.730Z,283.96
2019-01-16T05:00:14.721Z,284.23
2019-01-16T05:01:14.704Z,284.01
2019-01-16T05:02:14.668Z,283.91
2019-01-16T05:03:14.663Z,283.92
2019-01-16T05:04:14.654Z,284.42
2019-01-16T05:05:14.641Z,284.48
2019-01-16T05:06:14.634Z,284.11
2019-01-16T05:07:14.643Z,284.02
2019-01-16T05:08:14.627Z,284.57
2019-01-16T05:09:14.630Z,283.62
2019-01-16T05:10:14.600Z,284.44
2019-01-16T05:11:14.580Z,283.85
2019-01-16T05:12:14.565Z,284.31
2019-01-16T05:13:14.560Z,284.94
2019-01-16T05:14:14.549Z,284.16
2019-01-16T05:15:14.529Z,283.51
2019-01-16T05:16:14.525Z,283.96
2019-01-16T05:17:14.502Z,283.99
2019-01-16T05:18:14.491Z,284.46
2019-01-16T05:19:14.505Z,284.06
2019-01-16T05:20:14.486Z,284.48
2019-01-16T05:21:14.480Z,284.43
2019-01-16T05:22:14.457Z,284.39
2019-01-16T05:23:14.442Z,284.36
2019-01-16T05:24:14.439Z,284.00
2019-01-16T05:25:14.414Z,284.03
2019-01-16T05:26:14.411Z,283.83
2019-01-16T05:27:14.403Z,284.42
2019-01-16T05:28:14.397Z,284.27
2019-01-16T05:29:14.394Z,283.75
2019-01-16T05:30:14.391Z,283.28
2019-01-16T05:31:14.364Z,283.65
2019-01-16T05:32:14.357Z,283.65
2019-01-16T05:33:14.423Z,283.81
2019-01-16T05:34:17.077Z,283.62
2019-01-16T05:35:14.377Z,283.69
2019-01-16T05:36:14.362Z,282.97
2019-01-16T05:37:14.309Z,283.34
2019-01-16T05:38:14.299Z,282.87
2019-01-16T05:39:14.283Z,282.81
2019-01-16T05:40:14.263Z,283.03
2019-01-16T05:41:14.257Z,282.76
2019-01-16T05:42:14.235Z,282.65
2019-01-16T05:43:14.243Z,282.88
2019-01-16T05:44:14.217Z,282.60
2019-01-16T05:45:14.213Z,282.39
2019-01-16T05:46:14.204Z,282.82
2019-01-16T05:47:14.191Z,282.84
2019-01-16T05:48:14.173Z,282.98
2019-01-16T05:49:14.160Z,282.54
2019-01-16T05:50:14.166Z,282.65
2019-01-16T05:51:14.154Z,282.36
2019-01-16T05:52:14.147Z,282.94
2019-01-16T05:53:14.128Z,281.64
2019-01-16T05:54:14.115Z,282.05
2019-01-16T05:55:14.102Z,281.83
2019-01-16T05:56:14.097Z,282.14
2019-01-16T05:57:14.092Z,281.93
2019-01-16T05:58:14.100Z,281.33
2019-01-16T05:59:14.092Z,282.20
2019-01-16T06:00:14.054Z,281.85
2019-01-16T06:01:14.037Z,281.59
2019-01-16T06:02:14.036Z,281.71
2019-01-16T06:03:14.028Z,281.75
2019-01-16T06:04:14.052Z,281.40
2019-01-16T06:05:14.009Z,281.40
2019-01-16T06:06:13.988Z,281.31
2019-01-16T06:07:13.992Z,281.32
2019-01-16T06:08:13.985Z,281.60
2019-01-16T06:09:13.989Z,281.52
2019-01-16T06:10:13.989Z,281.39
2019-01-16T06:11:13.987Z,281.45
2019-01-16T06:12:13.943Z,282.05
2019-01-16T06:13:13.938Z,280.97
2019-01-16T06:14:13.922Z,280.83
2019-01-16T06:15:13.926Z,281.50
2019-01-16T06:16:13.912Z,281.12
2019-01-16T06:17:13.874Z,281.00
2019-01-16T06:18:13.862Z,280.94
2019-01-16T06:19:13.863Z,281.39
2019-01-16T06:20:13.848Z,281.22
2019-01-16T06:21:13.858Z,281.03
2019-01-16T06:22:13.840Z,281.00
2019-01-16T06:23:13.810Z,280.66
2019-01-16T06:24:13.801Z,281.41
2019-01-16T06:25:13.838Z,280.34
2019-01-16T06:26:13.780Z,280.59
2019-01-16T06:27:13.781Z,281.11
2019-01-16T06:28:13.762Z,280.39
2019-01-16T06:29:13.762Z,281.02
2019-01-16T06:30:13.743Z,280.83
2019-01-16T06:31:13.755Z,280.94
2019-01-16T06:32:13.727Z,280.62
2019-01-16T06:33:13.736Z,280.23
2019-01-16T06:34:13.733Z,280.81
2019-01-16T06:35:13.683Z,280.71
2019-01-16T06:36:13.680Z,280.60
2019-01-16T06:37:13.665Z,280.42
2019-01-16T06:38:13.671Z,281.38
2019-01-16T06:39:13.660Z,280.50
2019-01-16T06:40:13.632Z,280.66
2019-01-16T06:41:13.620Z,280.36
2019-01-16T06:42:13.613Z,280.52
2019-01-16T06:43:13.620Z,281.08
2019-01-16T06:44:13.609Z,280.77
2019-01-16T06:45:13.597Z,280.40
2019-01-16T06:46:13.571Z,281.12
2019-01-16T06:47:13.557Z,280.55
2019-01-16T06:48:13.555Z,280.46
2019-01-16T06:49:13.548Z,280.48
2019-01-16T06:50:16.567Z,280.19
2019-01-16T06:51:13.533Z,280.72
2019-01-16T06:52:13.508Z,280.91
2019-01-16T06:53:13.503Z,281.09
2019-01-16T06:54:13.486Z,280.75
2019-01-16T06:55:13.476Z,280.17
2019-01-16T06:56:13.474Z,280.59
2019-01-16T06:57:13.479Z,280.03
2019-01-16T06:58:13.444Z,281.05
2019-01-16T06:59:13.446Z,280.59
2019-01-16T07:00:13.453Z,280.58
2019-01-16T07:01:13.412Z,280.81
2019-01-16T07:02:13.413Z,280.62
2019-01-16T07:03:13.777Z,281.24
2019-01-16T07:04:13.438Z,281.25
2019-01-16T07:05:13.386Z,280.40
2019-01-16T07:06:13.380Z,280.31
2019-01-16T07:07:13.357Z,281.01
2019-01-16T07:08:13.348Z,281.03
2019-01-16T07:09:13.337Z,281.18
2019-01-16T07:10:13.322Z,281.08
2019-01-16T07:11:13.310Z,280.75
2019-01-16T07:12:13.294Z,281.15
2019-01-16T07:13:14.155Z,280.58
2019-01-16T07:14:13.295Z,281.48
2019-01-16T07:15:13.276Z,281.61
2019-01-16T07:16:13.255Z,281.19
2019-01-16T07:17:13.255Z,281.17
2019-01-16T07:18:13.246Z,281.43
2019-01-16T07:19:13.226Z,281.20
2019-01-16T07:20:13.228Z,281.11
2019-01-16T07:21:13.238Z,281.28
2019-01-16T07:22:13.192Z,280.92
2019-01-16T07:23:13.247Z,281.17
2019-01-16T07:24:13.175Z,281.36
2019-01-16T07:25:13.167Z,281.73
2019-01-16T07:26:13.155Z,281.17
2019-01-16T07:27:13.178Z,280.56
2019-01-16T07:28:13.148Z,281.10
2019-01-16T07:29:13.206Z,281.14
2019-01-16T07:30:13.123Z,281.07
2019-01-16T07:31:13.132Z,281.50
2019-01-16T07:32:13.117Z,281.43
2019-01-16T07:33:13.124Z,281.37
2019-01-16T07:34:13.151Z,281.20
2019-01-16T07:35:13.091Z,281.65
2019-01-16T07:36:13.072Z,281.44
2019-01-16T07:37:13.064Z,282.10
2019-01-16T07:38:13.065Z,281.30
2019-01-16T07:39:13.113Z,281.04
2019-01-16T07:40:13.019Z,281.14
2019-01-16T07:41:13.023Z,281.78
2019-01-16T07:42:13.002Z,281.91
2019-01-16T07:43:12.998Z,281.77
2019-01-16T07:44:12.996Z,281.55
2019-01-16T07:45:13.005Z,282.63
2019-01-16T07:46:12.962Z,282.00
2019-01-16T07:47:12.959Z,281.85
2019-01-16T07:48:12.930Z,281.88
2019-01-16T07:49:12.987Z,282.81
2019-01-16T07:50:17.121Z,282.57
2019-01-16T07:51:12.902Z,281.85
2019-01-16T07:52:12.902Z,282.27
2019-01-16T07:53:12.910Z,282.12
2019-01-16T07:54:12.877Z,282.17
2019-01-16T07:55:12.878Z,282.98
2019-01-16T07:56:12.867Z,282.89
2019-01-16T07:57:12.884Z,282.48
2019-01-16T07:58:12.845Z,282.80
2019-01-16T07:59:12.844Z,283.12
2019-01-16T08:00:12.840Z,282.12
2019-01-16T08:01:12.808Z,282.72
2019-01-16T08:02:12.786Z,283.02
2019-01-16T08:03:12.773Z,282.83
2019-01-16T08:04:13.675Z,282.40
2019-01-16T08:05:12.769Z,282.73
2019-01-16T08:06:12.770Z,282.34
2019-01-16T08:07:12.832Z,282.63
2019-01-16T08:08:12.722Z,283.43
2019-01-16T08:09:12.708Z,282.57
2019-01-16T08:10:12.701Z,282.63
2019-01-16T08:11:12.690Z,282.08
2019-01-16T08:12:12.692Z,282.92
2019-01-16T08:13:12.720Z,282.88
2019-01-16T08:14:12.677Z,282.76
2019-01-16T08:15:12.708Z,282.77
2019-01-16T08:16:12.631Z,282.70
2019-01-16T08:17:12.644Z,282.81
2019-01-16T08:18:13.626Z,283.00
2019-01-16T08:19:12.641Z,282.67
2019-01-16T08:20:12.586Z,283.27
2019-01-16T08:21:12.590Z,283.45
2019-01-16T08:22:12.589Z,283.64
2019-01-16T08:23:12.577Z,282.79
2019-01-16T08:24:12.589Z,283.07
2019-01-16T08:25:12.533Z,283.24
2019-01-16T08:26:12.601Z,283.67
2019-01-16T08:27:12.605Z,283.20
2019-01-16T08:28:12.607Z,282.86
2019-01-16T08:29:12.506Z,282.85
2019-01-16T08:30:12.512Z,283.00
2019-01-16T08:31:12.473Z,282.49
2019-01-16T08:32:12.484Z,282.80
2019-01-16T08:33:12.507Z,282.84
2019-01-16T08:34:12.455Z,283.36
2019-01-16T08:35:12.444Z,283.64
2019-01-16T08:36:12.432Z,283.05
2019-01-16T08:37:12.412Z,282.87
2019-01-16T08:38:12.686Z,277.03
2019-01-16T08:39:12.398Z,279.16
2019-01-16T08:40:12.373Z,278.67
2019-01-16T08:41:12.369Z,279.71
2019-01-16T08:42:12.353Z,279.96
2019-01-16T08:43:12.341Z,280.96
2019-01-16T08:44:13.898Z,281.29
2019-01-16T08:45:12.334Z,281.52
2019-01-16T08:46:12.342Z,281.76
2019-01-16T08:47:12.310Z,282.67
2019-01-16T08:48:12.301Z,282.80
2019-01-16T08:49:12.315Z,283.04
2019-01-16T08:50:12.291Z,283.40
2019-01-16T08:51:12.283Z,283.80
2019-01-16T08:52:12.264Z,283.60
2019-01-16T08:53:12.245Z,284.64
2019-01-16T08:54:12.255Z,284.61
2019-01-16T08:55:12.227Z,283.62
2019-01-16T08:56:12.215Z,285.31
2019-01-16T08:57:12.230Z,284.75
2019-01-16T08:58:12.199Z,284.81
2019-01-16T08:59:12.204Z,285.27
2019-01-16T09:00:12.208Z,285.16
2019-01-16T09:01:12.240Z,286.11
2019-01-16T09:02:12.149Z,284.87
2019-01-16T09:03:12.145Z,285.54
2019-01-16T09:04:12.136Z,285.61
2019-01-16T09:05:12.123Z,285.77
2019-01-16T09:06:12.144Z,285.99
2019-01-16T09:07:12.095Z,285.92
2019-01-16T09:08:12.088Z,285.92
2019-01-16T09:09:12.098Z,285.73
2019-01-16T09:10:12.060Z,285.45
2019-01-16T09:11:12.047Z,286.33
2019-01-16T09:12:12.102Z,286.37
2019-01-16T09:13:12.035Z,285.95
2019-01-16T09:14:12.029Z,286.02
2019-01-16T09:15:12.022Z,286.12
2019-01-16T09:16:12.087Z,286.20
2019-01-16T09:17:12.004Z,286.53
2019-01-16T09:18:12.034Z,287.57
2019-01-16T09:19:11.980Z,286.25
2019-01-16T09:20:11.967Z,286.20
2019-01-16T09:21:11.986Z,286.39
2019-01-16T09:22:11.951Z,286.67
2019-01-16T09:23:11.942Z,286.79
2019-01-16T09:24:11.975Z,286.82
2019-01-16T09:25:11.954Z,286.68
2019-01-16T09:26:11.906Z,287.35
2019-01-16T09:27:11.876Z,286.52
2019-01-16T09:28:11.890Z,287.31
2019-01-16T09:29:11.885Z,287.38
2019-01-16T09:30:11.876Z,287.44
2019-01-16T09:31:11.852Z,287.77
2019-01-16T09:32:11.862Z,287.26
2019-01-16T09:33:11.820Z,287.42
2019-01-16T09:34:11.805Z,287.38
2019-01-16T09:35:11.807Z,287.00
2019-01-16T09:36:11.795Z,287.81
2019-01-16T09:37:11.787Z,287.48
2019-01-16T09:38:11.763Z,287.56
2019-01-16T09:39:11.763Z,288.27
2019-01-16T09:40:11.790Z,287.02
2019-01-16T09:41:11.752Z,287.79
2019-01-16T09:42:11.723Z,288.18
2019-01-16T09:43:12.155Z,287.62
2019-01-16T09:44:11.715Z,287.89
2019-01-16T09:45:11.707Z,287.58
2019-01-16T09:46:11.700Z,287.72
2019-01-16T09:47:11.684Z,288.17
2019-01-16T09:48:11.696Z,287.89
2019-01-16T09:49:11.705Z,288.16
2019-01-16T09:50:11.641Z,288.26
2019-01-16T09:51:11.641Z,288.70
2019-01-16T09:52:11.647Z,288.09
2019-01-16T09:53:11.606Z,288.51
2019-01-16T09:54:11.637Z,288.41
2019-01-16T09:55:11.598Z,288.33
2019-01-16T09:56:11.575Z,288.49
2019-01-16T09:57:11.587Z,288.82
2019-01-16T09:58:11.559Z,288.70
2019-01-16T09:59:11.548Z,288.10
2019-01-16T10:00:11.536Z,289.22
2019-01-16T10:01:11.526Z,288.51
2019-01-16T10:02:11.531Z,286.89
2019-01-16T10:03:11.513Z,289.02
2019-01-16T10:04:11.510Z,288.46
2019-01-16T10:05:11.516Z,288.76
2019-01-16T10:06:11.491Z,287.90
2019-01-16T10:07:11.485Z,288.47
2019-01-16T10:08:11.476Z,288.85
2019-01-16T10:09:11.454Z,288.17
2019-01-16T10:10:11.441Z,288.54
2019-01-16T10:11:11.435Z,287.60
2019-01-16T10:12:11.431Z,288.42
2019-01-16T10:13:11.431Z,287.85
2019-01-16T10:14:11.394Z,287.17
2019-01-16T10:15:11.393Z,287.86
2019-01-16T10:16:11.383Z,288.11
2019-01-16T10:17:11.358Z,287.81
2019-01-16T10:18:11.367Z,287.48
2019-01-16T10:19:11.335Z,287.24
2019-01-16T10:20:11.337Z,286.68
2019-01-16T10:21:11.324Z,287.49
2019-01-16T10:22:11.307Z,287.09
2019-01-16T10:23:11.299Z,286.80
2019-01-16T10:24:11.303Z,287.18
2019-01-16T10:25:11.275Z,287.69
2019-01-16T10:26:11.271Z,286.93
2019-01-16T10:27:12.286Z,287.21
2019-01-16T10:28:11.268Z,286.34
2019-01-16T10:29:11.238Z,286.44
2019-01-16T10:30:11.248Z,285.91
2019-01-16T10:31:11.207Z,286.33
2019-01-16T10:32:11.200Z,286.54
2019-01-16T10:33:11.209Z,285.85
2019-01-16T10:34:11.173Z,285.36
2019-01-16T10:35:11.166Z,285.93
2019-01-16T10:36:11.173Z,285.37
2019-01-16T10:37:11.142Z,285.49
2019-01-16T10:38:11.133Z,286.16
2019-01-16T10:39:11.141Z,285.60
2019-01-16T10:40:11.124Z,285.98
2019-01-16T10:41:11.108Z,284.97
2019-01-16T10:42:11.131Z,285.36
2019-01-16T10:43:11.116Z,285.70
2019-01-16T10:44:11.089Z,285.63
2019-01-16T10:45:12.121Z,285.96
2019-01-16T10:46:11.069Z,284.80
2019-01-16T10:47:11.061Z,285.40
2019-01-16T10:48:11.045Z,285.21
2019-01-16T10:49:11.026Z,284.49
2019-01-16T10:50:11.012Z,285.02
2019-01-16T10:51:11.008Z,284.92
2019-01-16T10:52:10.993Z,284.92
2019-01-16T10:53:10.994Z,284.95
2019-01-16T10:54:10.963Z,284.02
2019-01-16T10:55:10.962Z,284.40
2019-01-16T10:56:10.948Z,284.03
2019-01-16T10:57:10.933Z,284.87
2019-01-16T10:58:10.930Z,284.46
2019-01-16T10:59:10.924Z,283.40
2019-01-16T11:00:10.905Z,284.52
2019-01-16T11:01:10.883Z,284.64
2019-01-16T11:02:10.873Z,284.63
2019-01-16T11:03:10.885Z,284.23
2019-01-16T11:04:10.859Z,283.26
2019-01-16T11:05:10.859Z,283.35
2019-01-16T11:06:10.840Z,283.70
2019-01-16T11:07:10.829Z,283.91
2019-01-16T11:08:10.830Z,283.92
2019-01-16T11:09:10.812Z,282.96
2019-01-16T11:10:10.800Z,283.18
2019-01-16T11:11:16.025Z,283.63
2019-01-16T11:12:11.795Z,283.67
2019-01-16T11:13:10.772Z,284.00
2019-01-16T11:14:10.784Z,284.22
2019-01-16T11:15:10.769Z,283.21
2019-01-16T11:16:10.746Z,283.19
2019-01-16T11:17:10.781Z,283.61
2019-01-16T11:18:10.740Z,283.40
2019-01-16T11:19:10.743Z,283.44
2019-01-16T11:20:10.740Z,282.83
2019-01-16T11:21:11.051Z,283.36
2019-01-16T11:22:10.694Z,283.30
2019-01-16T11:23:10.666Z,283.33
2019-01-16T11:24:10.662Z,283.61
2019-01-16T11:25:10.653Z,283.43
2019-01-16T11:26:10.677Z,282.36
2019-01-16T11:27:10.623Z,283.52
2019-01-16T11:28:10.627Z,283.70
2019-01-16T11:29:10.591Z,282.39
2019-01-16T11:30:10.585Z,283.57
2019-01-16T11:31:10.589Z,283.15
2019-01-16T11:32:10.588Z,282.70
2019-01-16T11:33:10.603Z,283.78
2019-01-16T11:34:10.573Z,283.94
2019-01-16T11:35:10.595Z,284.06
2019-01-16T11:36:10.533Z,284.13
2019-01-16T11:37:10.575Z,283.74
2019-01-16T11:38:10.503Z,283.73
2019-01-16T11:39:10.508Z,283.15
2019-01-16T11:40:10.517Z,283.94
2019-01-16T11:41:10.514Z,283.78
2019-01-16T11:42:10.474Z,283.86
2019-01-16T11:43:10.471Z,283.96
2019-01-16T11:44:10.452Z,284.21
2019-01-16T11:45:10.493Z,284.54
2019-01-16T11:46:10.435Z,284.01
2019-01-16T11:47:10.422Z,284.63
2019-01-16T11:48:11.225Z,284.02
2019-01-16T11:49:10.466Z,284.33
2019-01-16T11:50:10.394Z,284.02
2019-01-16T11:51:10.382Z,284.26
2019-01-16T11:52:10.387Z,283.76
2019-01-16T11:53:10.344Z,284.17
2019-01-16T11:54:10.352Z,284.77
2019-01-16T11:55:10.338Z,284.45
2019-01-16T11:56:10.354Z,285.37
2019-01-16T11:57:10.339Z,284.64
2019-01-16T11:58:10.307Z,285.79
2019-01-16T11:59:10.308Z,285.25
2019-01-16T12:00:10.339Z,283.17
2019-01-16T12:01:10.263Z,281.95
2019-01-16T12:02:10.252Z,285.78
2019-01-16T12:03:10.239Z,285.40
2019-01-16T12:04:10.235Z,286.35
2019-01-16T12:05:10.231Z,285.27
2019-01-16T12:06:10.224Z,286.06
2019-01-16T12:07:10.201Z,285.22
2019-01-16T12:08:10.193Z,285.53
2019-01-16T12:09:10.181Z,287.58
2019-01-16T12:10:10.194Z,286.55
2019-01-16T12:11:10.160Z,285.55
2019-01-16T12:12:11.309Z,286.16
2019-01-16T12:13:10.184Z,286.40
2019-01-16T12:14:10.136Z,286.35
2019-01-16T12:15:10.111Z,286.76
2019-01-16T12:16:10.097Z,287.55
2019-01-16T12:17:10.103Z,285.93
2019-01-16T12:18:10.087Z,286.70
2019-01-16T12:19:10.130Z,286.14
2019-01-16T12:20:10.074Z,286.91
2019-01-16T12:21:10.774Z,287.02
2019-01-16T12:22:10.046Z,286.37
2019-01-16T12:23:10.047Z,286.47
2019-01-16T12:24:10.062Z,285.92
2019-01-16T12:25:10.082Z,286.69
2019-01-16T12:26:10.000Z,286.78
2019-01-16T12:27:10.005Z,287.19
2019-01-16T12:28:10.003Z,286.47